Time;durP1;ratioP1;P1;durP2;ratioP2;P2;SDS_P1;SDS_P2;PMS_P1;PMS_P2;Temp;Humidity;BMP_temperature;BMP_pressure;BME280_temperature;BME280_humidity;BME280_pressure;Samples;Min_cycle;Max_cycle;Signal;HPM_P1;HPM_P2
2023/05/14 00:02:02;;;;;;;1.70;1.60;;;23.50;42.10;;;;;;5053471;28;20238;-66
2023/05/14 00:04:28;;;;;;;2.60;2.03;;;23.50;42.10;;;;;;5056694;28;20404;-64
2023/05/14 00:06:54;;;;;;;2.25;1.77;;;23.50;42.10;;;;;;5053944;28;20040;-65
2023/05/14 00:09:20;;;;;;;2.05;1.63;;;23.60;42.20;;;;;;5062942;28;20417;-62
2023/05/14 00:11:46;;;;;;;2.47;1.77;;;23.50;42.20;;;;;;5055298;28;20059;-65
2023/05/14 00:14:12;;;;;;;3.13;1.80;;;23.50;42.20;;;;;;5038421;28;20373;-65
2023/05/14 00:16:38;;;;;;;2.00;1.77;;;23.60;42.20;;;;;;5059269;28;20078;-65
2023/05/14 00:19:04;;;;;;;2.50;1.90;;;23.50;42.30;;;;;;5058033;28;20116;-64
2023/05/14 00:21:30;;;;;;;1.90;1.70;;;23.50;42.20;;;;;;5057441;28;20053;-64
2023/05/14 00:23:56;;;;;;;2.97;2.17;;;23.50;42.20;;;;;;5055506;28;20088;-63
2023/05/14 00:26:22;;;;;;;2.47;1.80;;;23.50;42.20;;;;;;5059360;28;20033;-63
2023/05/14 00:28:48;;;;;;;2.60;1.90;;;23.50;42.30;;;;;;5056119;28;20135;-61
2023/05/14 00:31:14;;;;;;;3.10;1.90;;;23.50;42.30;;;;;;5036113;28;20145;-61
2023/05/14 00:33:40;;;;;;;1.80;1.55;;;23.50;42.30;;;;;;5038261;28;20068;-65
2023/05/14 00:36:06;;;;;;;2.40;1.70;;;23.50;42.30;;;;;;5051031;28;20120;-64
2023/05/14 00:38:33;;;;;;;2.60;1.85;;;23.40;42.30;;;;;;5056905;28;20115;-64
2023/05/14 00:40:59;;;;;;;2.45;1.70;;;23.40;42.30;;;;;;5037138;28;20104;-63
2023/05/14 00:43:24;;;;;;;2.90;2.00;;;23.40;42.30;;;;;;5055676;28;20053;-63
2023/05/14 00:45:53;;;;;;;4.18;2.42;;;23.40;42.30;;;;;;5057251;28;20073;-65
2023/05/14 00:48:20;;;;;;;4.78;2.63;;;23.40;42.30;;;;;;5037805;28;20035;-62
2023/05/14 00:50:47;;;;;;;4.72;2.60;;;23.40;42.30;;;;;;5048245;28;20059;-64
2023/05/14 00:53:13;;;;;;;3.92;2.65;;;23.40;42.40;;;;;;5055876;28;20164;-64
2023/05/14 00:55:41;;;;;;;6.07;2.70;;;23.40;42.40;;;;;;5058185;28;20417;-64
2023/05/14 00:58:09;;;;;;;4.28;2.30;;;23.40;42.40;;;;;;5058426;28;20028;-62
2023/05/14 01:00:36;;;;;;;3.17;2.10;;;23.40;42.50;;;;;;5042798;28;20033;-66
2023/05/14 01:03:03;;;;;;;2.95;2.10;;;23.40;42.50;;;;;;5032410;28;20021;-65
2023/05/14 01:05:51;;;;;;;4.28;2.40;;;23.40;42.50;;;;;;5036862;28;20420;-65
2023/05/14 01:09:04;;;;;;;3.13;2.10;;;23.40;42.50;;;;;;5052121;28;21137;-66
2023/05/14 01:11:45;;;;;;;9.90;2.13;;;23.40;42.60;;;;;;5046317;28;20047;-62
2023/05/14 01:14:44;;;;;;;2.70;1.67;;;23.30;42.50;;;;;;5037841;28;20408;-63
2023/05/14 01:17:12;;;;;;;2.22;1.70;;;23.30;42.60;;;;;;5057601;28;20075;-64
2023/05/14 01:19:43;;;;;;;3.25;1.90;;;23.30;42.60;;;;;;5023091;28;20025;-65
2023/05/14 01:22:10;;;;;;;2.63;1.85;;;23.30;42.60;;;;;;5056742;28;20029;-64
2023/05/14 01:24:37;;;;;;;3.22;1.85;;;23.30;42.70;;;;;;5060274;28;20310;-63
2023/05/14 01:27:28;;;;;;;1.98;1.73;;;23.30;42.70;;;;;;5037954;28;20033;-63
2023/05/14 01:29:57;;;;;;;2.72;1.80;;;23.30;42.70;;;;;;5060837;28;20605;-66
2023/05/14 01:32:24;;;;;;;2.25;1.50;;;23.30;42.70;;;;;;5032097;28;20037;-64
2023/05/14 01:34:54;;;;;;;2.97;2.22;;;23.30;42.80;;;;;;5045560;28;20316;-64
2023/05/14 01:37:21;;;;;;;3.08;1.80;;;23.30;42.80;;;;;;5056055;28;20021;-64
2023/05/14 01:39:49;;;;;;;3.25;1.90;;;23.30;42.80;;;;;;5038094;28;20463;-65
2023/05/14 01:42:15;;;;;;;2.60;1.70;;;23.30;42.80;;;;;;5033597;28;20080;-66
2023/05/14 01:44:41;;;;;;;4.18;2.22;;;23.30;42.90;;;;;;5039530;28;20369;-65
2023/05/14 01:47:07;;;;;;;2.03;1.83;;;23.30;42.90;;;;;;5035373;28;20116;-62
2023/05/14 01:49:33;;;;;;;3.17;1.98;;;23.30;42.90;;;;;;5036699;28;20131;-64
2023/05/14 01:51:59;;;;;;;2.20;1.60;;;23.30;42.90;;;;;;5054113;28;20075;-61
2023/05/14 01:54:25;;;;;;;4.00;1.63;;;23.20;42.90;;;;;;5059042;28;20052;-62
2023/05/14 01:56:50;;;;;;;2.15;1.75;;;23.20;42.90;;;;;;5054814;28;20124;-62
2023/05/14 01:59:16;;;;;;;2.60;1.70;;;23.20;42.90;;;;;;5037903;28;20025;-64
2023/05/14 02:01:42;;;;;;;2.72;1.73;;;23.20;42.90;;;;;;5053171;28;20102;-63
2023/05/14 02:04:08;;;;;;;3.15;2.00;;;23.20;43.00;;;;;;5057337;28;20081;-64
2023/05/14 02:06:34;;;;;;;2.00;1.73;;;23.20;43.00;;;;;;5051853;28;20376;-63
2023/05/14 02:09:00;;;;;;;3.58;1.80;;;23.20;43.00;;;;;;5042587;28;20028;-62
2023/05/14 02:11:26;;;;;;;2.53;1.80;;;23.20;43.00;;;;;;5037172;28;20036;-65
2023/05/14 02:13:52;;;;;;;2.78;1.77;;;23.20;43.00;;;;;;5055039;28;20049;-65
2023/05/14 02:16:18;;;;;;;3.35;2.10;;;23.20;43.00;;;;;;5043602;28;20440;-63
2023/05/14 02:18:43;;;;;;;3.15;1.98;;;23.20;43.10;;;;;;5047188;28;20052;-65
2023/05/14 02:21:09;;;;;;;4.38;1.80;;;23.10;43.00;;;;;;5061570;28;20472;-65
2023/05/14 02:23:35;;;;;;;2.40;1.67;;;23.20;43.10;;;;;;5047490;28;20154;-66
2023/05/14 02:26:01;;;;;;;2.10;1.83;;;23.20;43.10;;;;;;5055332;28;20051;-65
2023/05/14 02:28:27;;;;;;;3.25;2.05;;;23.10;43.10;;;;;;5036936;28;20043;-67
2023/05/14 02:30:59;;;;;;;2.92;1.90;;;23.10;43.10;;;;;;5042765;28;20025;-65
2023/05/14 02:33:24;;;;;;;1.92;1.58;;;23.10;43.10;;;;;;5041664;28;20582;-64
2023/05/14 02:35:50;;;;;;;3.20;1.85;;;23.10;43.10;;;;;;5037115;28;20115;-64
2023/05/14 02:38:17;;;;;;;2.05;1.63;;;23.10;43.20;;;;;;5037709;28;20041;-64
2023/05/14 02:40:43;;;;;;;2.08;1.70;;;23.10;43.20;;;;;;5037976;28;20056;-65
2023/05/14 02:43:09;;;;;;;2.70;1.88;;;23.10;43.20;;;;;;5042712;28;20389;-66
2023/05/14 02:45:35;;;;;;;3.80;2.05;;;23.10;43.20;;;;;;5058509;28;20029;-65
2023/05/14 02:48:01;;;;;;;2.90;2.03;;;23.10;43.30;;;;;;5058819;28;20112;-62
2023/05/14 02:50:26;;;;;;;3.33;1.77;;;23.10;43.30;;;;;;5038301;28;20025;-65
2023/05/14 02:52:52;;;;;;;2.97;1.90;;;23.10;43.30;;;;;;5036773;28;20028;-67
2023/05/14 02:55:18;;;;;;;3.00;1.73;;;23.10;43.30;;;;;;5056754;28;20033;-67
2023/05/14 02:57:44;;;;;;;3.47;1.80;;;23.00;43.30;;;;;;5040140;28;20447;-64
2023/05/14 03:00:11;;;;;;;3.47;2.10;;;23.10;43.40;;;;;;5058672;28;20067;-65
2023/05/14 03:02:37;;;;;;;2.80;1.80;;;23.00;43.40;;;;;;5038944;28;20131;-64
2023/05/14 03:05:03;;;;;;;2.85;2.03;;;23.00;43.40;;;;;;5041591;28;20405;-63
2023/05/14 03:07:29;;;;;;;2.90;1.95;;;23.00;43.40;;;;;;5059848;28;20028;-63
2023/05/14 03:09:55;;;;;;;3.10;2.10;;;23.00;43.40;;;;;;5061782;28;20044;-64
2023/05/14 03:12:21;;;;;;;3.60;2.00;;;23.00;44.10;;;;;;5035919;28;20024;-66
2023/05/14 03:14:47;;;;;;;2.65;2.03;;;23.00;43.40;;;;;;5041258;28;20036;-66
2023/05/14 03:17:12;;;;;;;2.63;1.75;;;23.00;43.40;;;;;;5042461;28;20085;-64
2023/05/14 03:19:38;;;;;;;2.75;1.90;;;23.00;43.40;;;;;;5059321;28;20028;-62
2023/05/14 03:22:06;;;;;;;2.95;1.98;;;23.00;43.50;;;;;;5062070;28;20094;-63
2023/05/14 03:24:32;;;;;;;2.42;1.73;;;23.00;43.50;;;;;;5061851;28;20040;-64
2023/05/14 03:26:58;;;;;;;2.10;1.80;;;23.00;43.50;;;;;;5057685;28;20036;-66
2023/05/14 03:29:23;;;;;;;4.60;2.08;;;23.00;43.50;;;;;;5038575;28;20028;-65
2023/05/14 03:31:49;;;;;;;1.92;1.70;;;23.00;43.50;;;;;;5057119;28;20032;-64
2023/05/14 03:34:15;;;;;;;3.78;1.80;;;23.00;43.50;;;;;;5046464;28;20413;-65
2023/05/14 03:36:41;;;;;;;1.95;1.70;;;22.90;43.50;;;;;;5045001;28;20111;-64
2023/05/14 03:39:08;;;;;;;1.98;1.70;;;22.90;43.50;;;;;;5034590;28;20386;-64
2023/05/14 03:41:35;;;;;;;2.83;1.70;;;22.90;43.50;;;;;;5053268;28;20039;-62
2023/05/14 03:44:01;;;;;;;2.33;1.80;;;22.90;43.50;;;;;;5059181;28;20051;-61
2023/05/14 03:46:27;;;;;;;2.30;1.67;;;22.90;43.50;;;;;;5037776;28;20037;-62
2023/05/14 03:48:55;;;;;;;3.20;2.05;;;22.90;43.50;;;;;;5040898;28;20040;-62
2023/05/14 03:51:21;;;;;;;3.22;1.98;;;22.90;43.60;;;;;;5039362;28;20054;-65
2023/05/14 03:53:46;;;;;;;1.70;1.60;;;22.90;43.60;;;;;;5041320;28;20448;-62
2023/05/14 03:56:13;;;;;;;2.55;2.08;;;22.90;43.50;;;;;;5045547;28;20131;-63
2023/05/14 03:58:39;;;;;;;2.17;1.65;;;22.90;43.60;;;;;;5038542;28;20103;-65
2023/05/14 04:01:05;;;;;;;2.53;1.77;;;22.90;43.60;;;;;;5034054;28;20024;-64
2023/05/14 04:03:31;;;;;;;1.88;1.58;;;22.90;43.60;;;;;;5041113;28;20032;-62
2023/05/14 04:05:57;;;;;;;2.92;1.90;;;22.90;43.60;;;;;;5036642;28;20036;-66
2023/05/14 04:08:22;;;;;;;3.65;2.20;;;22.90;43.60;;;;;;5031556;28;20094;-64
2023/05/14 04:10:50;;;;;;;3.63;1.83;;;22.90;43.60;;;;;;5039052;28;20033;-63
2023/05/14 04:13:16;;;;;;;4.90;2.15;;;22.90;43.60;;;;;;5038302;28;20048;-64
2023/05/14 04:15:42;;;;;;;3.15;2.00;;;22.80;43.60;;;;;;5038195;28;20037;-61
2023/05/14 04:18:08;;;;;;;2.97;1.92;;;22.90;43.60;;;;;;5038953;28;20029;-65
2023/05/14 04:20:34;;;;;;;2.70;1.90;;;22.90;43.70;;;;;;5038765;28;20056;-66
2023/05/14 04:23:00;;;;;;;2.13;1.70;;;22.90;43.70;;;;;;5060593;28;20025;-62
2023/05/14 04:25:25;;;;;;;2.08;1.58;;;22.80;43.60;;;;;;5052660;28;20021;-67
2023/05/14 04:27:51;;;;;;;2.72;1.65;;;22.80;43.60;;;;;;5036873;28;20092;-62
2023/05/14 04:30:17;;;;;;;3.30;2.25;;;22.80;43.60;;;;;;5040653;28;20025;-65
2023/05/14 04:32:43;;;;;;;2.55;1.90;;;22.80;43.60;;;;;;5054704;28;21186;-64
2023/05/14 04:35:09;;;;;;;2.97;2.00;;;22.80;43.60;;;;;;5059132;28;20267;-66
2023/05/14 04:37:35;;;;;;;2.45;1.70;;;22.80;43.60;;;;;;5057898;28;20032;-67
2023/05/14 04:40:01;;;;;;;3.05;1.90;;;22.80;43.60;;;;;;5055233;28;20017;-63
2023/05/14 04:42:26;;;;;;;3.33;1.98;;;22.80;43.60;;;;;;5060437;28;20376;-65
2023/05/14 04:44:52;;;;;;;2.75;1.90;;;22.80;43.60;;;;;;5059783;28;20124;-67
2023/05/14 04:47:19;;;;;;;2.42;1.52;;;22.80;43.70;;;;;;5062414;28;20020;-66
2023/05/14 04:49:45;;;;;;;2.58;2.00;;;22.80;43.60;;;;;;5056866;28;20029;-65
2023/05/14 04:52:11;;;;;;;2.38;1.77;;;22.80;43.60;;;;;;5059512;28;20035;-66
2023/05/14 04:54:37;;;;;;;2.72;1.98;;;22.80;43.60;;;;;;5038181;28;20037;-64
2023/05/14 04:57:03;;;;;;;3.40;1.90;;;22.80;43.60;;;;;;5058008;28;20660;-65
2023/05/14 04:59:29;;;;;;;3.00;1.90;;;22.80;43.70;;;;;;5058175;28;20087;-65
2023/05/14 05:01:56;;;;;;;2.10;1.55;;;22.80;43.70;;;;;;5051225;28;20032;-63
2023/05/14 05:04:22;;;;;;;3.30;1.80;;;22.80;43.70;;;;;;5057151;28;20136;-62
2023/05/14 05:06:49;;;;;;;1.70;1.60;;;22.80;43.70;;;;;;5039905;28;20048;-63
2023/05/14 05:09:16;;;;;;;3.20;1.67;;;22.80;43.70;;;;;;5059681;28;20021;-65
2023/05/14 05:11:42;;;;;;;2.78;1.80;;;22.80;43.70;;;;;;5052278;28;20029;-62
2023/05/14 05:14:08;;;;;;;2.88;1.80;;;22.80;43.70;;;;;;5055091;28;20086;-62
2023/05/14 05:16:34;;;;;;;4.85;1.67;;;22.80;43.80;;;;;;5059585;28;20112;-63
2023/05/14 05:19:00;;;;;;;2.38;1.60;;;22.80;43.80;;;;;;5057966;28;20369;-65
2023/05/14 05:21:26;;;;;;;4.90;1.90;;;22.80;43.80;;;;;;5062191;28;20029;-61
2023/05/14 05:23:51;;;;;;;3.58;1.85;;;22.90;43.90;;;;;;5056105;28;20033;-63
2023/05/14 05:26:17;;;;;;;2.90;1.80;;;22.80;43.80;;;;;;5059101;28;20025;-64
2023/05/14 05:28:43;;;;;;;3.70;1.65;;;22.80;43.90;;;;;;5059874;28;20025;-62
2023/05/14 05:31:09;;;;;;;2.85;1.55;;;22.80;43.90;;;;;;5057457;28;20032;-63
2023/05/14 05:33:35;;;;;;;2.72;1.70;;;22.80;43.90;;;;;;5056467;28;20048;-68
2023/05/14 05:36:00;;;;;;;3.20;1.80;;;22.80;44.00;;;;;;5055943;28;20024;-63
2023/05/14 05:38:26;;;;;;;3.72;1.83;;;22.90;44.00;;;;;;5057795;28;20436;-62
2023/05/14 05:40:52;;;;;;;2.35;1.60;;;22.90;44.00;;;;;;5033646;28;20385;-63
2023/05/14 05:43:18;;;;;;;2.38;1.77;;;22.90;44.00;;;;;;5037994;28;20076;-63
2023/05/14 05:45:44;;;;;;;3.25;1.60;;;22.90;44.10;;;;;;5059538;28;20033;-63
2023/05/14 05:48:10;;;;;;;2.00;1.65;;;22.90;44.10;;;;;;5055059;28;20111;-63
2023/05/14 05:50:36;;;;;;;2.13;1.58;;;22.90;44.10;;;;;;5043691;28;20100;-62
2023/05/14 05:53:02;;;;;;;3.42;2.13;;;22.90;44.10;;;;;;5068303;28;20055;-65
2023/05/14 05:55:29;;;;;;;2.50;1.70;;;22.90;44.10;;;;;;5059989;28;20033;-64
2023/05/14 05:57:55;;;;;;;2.90;1.50;;;22.90;44.10;;;;;;5066021;28;20029;-61
2023/05/14 06:00:21;;;;;;;3.00;2.05;;;22.90;44.10;;;;;;5067914;28;20195;-63
2023/05/14 06:02:47;;;;;;;2.22;1.75;;;22.90;44.20;;;;;;5056813;28;20116;-62
2023/05/14 06:05:13;;;;;;;2.55;1.77;;;22.90;44.20;;;;;;5063715;28;20052;-62
2023/05/14 06:07:39;;;;;;;2.67;1.88;;;22.90;44.20;;;;;;5060810;28;20063;-62
2023/05/14 06:10:05;;;;;;;2.45;1.67;;;22.90;44.30;;;;;;5061254;28;20109;-65
2023/05/14 06:12:31;;;;;;;3.63;1.85;;;22.90;44.30;;;;;;5041235;28;20036;-64
2023/05/14 06:14:57;;;;;;;4.35;2.08;;;22.90;44.30;;;;;;5054018;28;20037;-65
2023/05/14 06:17:23;;;;;;;2.88;2.20;;;22.90;44.30;;;;;;5040551;28;20093;-63
2023/05/14 06:19:51;;;;;;;4.53;1.90;;;22.90;44.30;;;;;;5060470;28;20094;-62
2023/05/14 06:22:16;;;;;;;2.53;1.70;;;23.00;44.40;;;;;;5051121;28;20503;-63
2023/05/14 06:24:42;;;;;;;3.05;1.90;;;22.90;44.30;;;;;;5056178;28;20083;-62
2023/05/14 06:27:10;;;;;;;3.55;1.88;;;23.00;44.40;;;;;;5062491;28;20024;-64
2023/05/14 06:29:36;;;;;;;4.50;1.98;;;23.00;44.30;;;;;;5039645;28;20138;-63
2023/05/14 06:32:03;;;;;;;2.80;2.00;;;23.00;44.30;;;;;;5063820;28;20083;-64
2023/05/14 06:34:29;;;;;;;2.95;1.70;;;23.00;44.30;;;;;;5038494;28;20428;-64
2023/05/14 06:36:56;;;;;;;2.70;1.92;;;23.00;44.30;;;;;;5037490;28;20270;-63
2023/05/14 06:39:23;;;;;;;4.32;2.00;;;23.00;44.30;;;;;;5039093;28;20111;-62
2023/05/14 06:41:49;;;;;;;2.92;2.00;;;23.00;44.30;;;;;;5061139;28;20688;-64
2023/05/14 06:44:15;;;;;;;2.45;1.70;;;23.00;44.30;;;;;;5063109;28;20116;-66
2023/05/14 06:46:41;;;;;;;6.07;2.25;;;23.00;44.30;;;;;;5053886;28;20040;-64
2023/05/14 06:49:07;;;;;;;3.55;2.13;;;23.00;44.30;;;;;;5034645;28;20097;-62
2023/05/14 06:51:33;;;;;;;2.63;1.83;;;23.00;44.30;;;;;;5040380;28;20040;-64
2023/05/14 06:53:59;;;;;;;1.95;1.55;;;23.00;44.20;;;;;;5058945;28;20368;-64
2023/05/14 06:56:25;;;;;;;2.70;1.83;;;23.00;44.20;;;;;;5053716;28;20029;-65
2023/05/14 06:58:52;;;;;;;2.42;1.58;;;23.00;44.30;;;;;;5052706;28;20033;-64
2023/05/14 07:01:19;;;;;;;2.75;1.67;;;23.00;44.30;;;;;;5033908;28;20033;-64
2023/05/14 07:03:45;;;;;;;2.05;1.67;;;23.10;44.30;;;;;;5052619;28;20029;-64
2023/05/14 07:06:12;;;;;;;2.40;1.52;;;23.10;44.30;;;;;;5052704;28;20025;-61
2023/05/14 07:08:39;;;;;;;3.28;1.83;;;23.10;44.30;;;;;;5055100;28;20021;-61
2023/05/14 07:11:06;;;;;;;2.10;1.80;;;23.10;44.30;;;;;;5053590;28;20029;-61
2023/05/14 07:13:32;;;;;;;3.70;1.75;;;23.10;44.20;;;;;;5053747;28;20408;-64
2023/05/14 07:15:59;;;;;;;2.13;1.52;;;23.10;44.10;;;;;;5052025;28;20086;-64
2023/05/14 07:18:25;;;;;;;3.30;1.83;;;23.10;44.10;;;;;;5048802;28;20425;-64
2023/05/14 07:20:52;;;;;;;2.30;1.33;;;23.10;44.00;;;;;;5055569;28;20036;-63
2023/05/14 07:23:18;;;;;;;2.42;1.70;;;23.10;43.90;;;;;;5068261;28;20024;-66
2023/05/14 07:25:45;;;;;;;2.47;1.55;;;23.10;43.80;;;;;;5053264;28;20108;-62
2023/05/14 07:28:12;;;;;;;3.50;1.92;;;23.10;43.80;;;;;;5052261;28;20056;-63
2023/05/14 07:30:38;;;;;;;2.95;1.52;;;23.10;43.70;;;;;;5054724;28;20028;-64
2023/05/14 07:33:04;;;;;;;3.38;1.85;;;23.10;43.80;;;;;;5053624;28;20024;-65
2023/05/14 07:35:29;;;;;;;2.83;1.88;;;23.10;43.80;;;;;;5054145;28;20041;-66
2023/05/14 07:37:55;;;;;;;2.78;2.00;;;23.10;43.80;;;;;;5057464;28;20028;-67
2023/05/14 07:40:23;;;;;;;4.13;2.38;;;23.20;43.90;;;;;;5057383;28;20025;-67
2023/05/14 07:42:49;;;;;;;4.70;2.17;;;23.20;43.90;;;;;;5056796;28;20060;-65
2023/05/14 07:45:15;;;;;;;2.67;1.88;;;23.20;43.80;;;;;;5057310;28;20345;-66
2023/05/14 07:47:41;;;;;;;5.53;2.05;;;23.20;43.80;;;;;;5036691;28;20040;-65
2023/05/14 07:50:07;;;;;;;4.13;2.10;;;23.20;43.70;;;;;;5058187;28;20021;-65
2023/05/14 07:52:33;;;;;;;3.42;2.00;;;23.20;43.60;;;;;;5056539;28;20102;-64
2023/05/14 07:55:00;;;;;;;3.45;2.00;;;23.30;43.50;;;;;;5058476;28;20128;-66
2023/05/14 07:57:26;;;;;;;3.60;2.08;;;23.20;43.40;;;;;;5059042;28;20028;-66
2023/05/14 07:59:52;;;;;;;2.53;2.03;;;23.30;43.50;;;;;;5057083;28;20025;-67
2023/05/14 08:02:18;;;;;;;3.05;1.90;;;23.30;43.60;;;;;;5053782;28;20079;-66
2023/05/14 08:04:44;;;;;;;2.65;1.92;;;23.30;43.60;;;;;;5062275;28;20131;-64
2023/05/14 08:07:10;;;;;;;2.50;1.90;;;23.30;43.60;;;;;;5051310;28;20460;-64
2023/05/14 08:09:36;;;;;;;2.30;1.90;;;23.30;43.60;;;;;;5056655;28;20040;-67
2023/05/14 08:12:02;;;;;;;2.90;1.83;;;23.30;43.60;;;;;;5054250;28;20376;-67
2023/05/14 08:14:28;;;;;;;2.42;1.85;;;23.30;43.70;;;;;;5055488;28;20049;-66
2023/05/14 08:16:54;;;;;;;3.53;2.08;;;23.30;43.70;;;;;;5032318;28;20124;-67
2023/05/14 08:19:20;;;;;;;5.13;2.30;;;23.30;43.70;;;;;;5054220;28;20020;-65
2023/05/14 08:21:46;;;;;;;2.35;1.80;;;23.30;43.70;;;;;;5054658;28;20392;-66
2023/05/14 08:24:12;;;;;;;3.10;2.13;;;23.40;43.70;;;;;;5034232;28;20340;-64
2023/05/14 08:26:37;;;;;;;2.92;2.05;;;23.40;43.70;;;;;;5052445;28;20115;-66
2023/05/14 08:29:04;;;;;;;3.03;1.98;;;23.40;43.70;;;;;;5052910;28;20116;-64
2023/05/14 08:31:30;;;;;;;4.68;2.42;;;23.40;43.70;;;;;;5034764;28;20112;-65
2023/05/14 08:33:55;;;;;;;3.45;1.75;;;23.40;43.60;;;;;;5053230;28;20136;-63
2023/05/14 08:36:21;;;;;;;2.25;1.75;;;23.40;43.60;;;;;;5056000;28;20024;-65
2023/05/14 08:38:49;;;;;;;3.08;1.73;;;23.40;43.40;;;;;;5054081;28;20029;-67
2023/05/14 08:41:15;;;;;;;3.00;1.73;;;23.40;43.30;;;;;;5053019;28;20029;-63
2023/05/14 08:44:13;;;;;;;2.03;1.60;;;23.40;43.20;;;;;;5052902;28;20049;-67
2023/05/14 08:46:40;;;;;;;2.53;1.83;;;23.40;43.00;;;;;;5053404;28;20027;-66
2023/05/14 08:49:35;;;;;;;3.05;1.95;;;23.40;42.90;;;;;;5058082;28;20029;-67
2023/05/14 08:52:01;;;;;;;2.95;1.60;;;23.40;42.60;;;;;;5054715;28;20040;-65
2023/05/14 08:54:28;;;;;;;2.47;1.80;;;23.40;42.40;;;;;;5056961;28;20123;-65
2023/05/14 08:56:54;;;;;;;1.70;1.40;;;23.40;42.20;;;;;;5056821;28;20025;-62
2023/05/14 08:59:20;;;;;;;2.97;1.90;;;23.40;42.00;;;;;;5056977;28;20340;-64
2023/05/14 09:01:47;;;;;;;2.83;1.88;;;23.50;41.90;;;;;;5037692;28;20087;-61
2023/05/14 09:04:21;;;;;;;2.40;1.90;;;23.50;41.70;;;;;;5054114;28;20157;-63
2023/05/14 09:06:52;;;;;;;4.20;2.20;;;23.50;41.50;;;;;;5034104;28;20029;-64
2023/05/14 09:09:21;;;;;;;2.38;1.75;;;23.50;41.40;;;;;;5052906;28;20476;-65
2023/05/14 09:11:50;;;;;;;3.35;1.98;;;23.50;41.30;;;;;;5052512;28;20087;-64
2023/05/14 09:14:16;;;;;;;3.03;2.30;;;23.50;41.20;;;;;;5040965;28;20355;-65
2023/05/14 09:16:46;;;;;;;2.83;2.45;;;23.50;40.90;;;;;;5053323;28;20103;-63
2023/05/14 09:19:13;;;;;;;3.85;2.63;;;23.50;40.60;;;;;;5038076;28;20414;-66
2023/05/14 09:21:39;;;;;;;3.30;2.60;;;23.50;40.30;;;;;;5055505;28;20049;-65
2023/05/14 09:24:05;;;;;;;3.10;2.58;;;23.50;40.10;;;;;;5053122;28;20025;-63
2023/05/14 09:26:33;;;;;;;4.05;2.95;;;23.50;39.80;;;;;;5061900;28;20028;-64
2023/05/14 09:29:00;;;;;;;4.78;3.33;;;23.50;39.50;;;;;;5061729;28;21450;-62
2023/05/14 09:31:30;;;;;;;4.05;3.55;;;23.50;39.40;;;;;;5059262;28;20021;-63
2023/05/14 09:33:58;;;;;;;4.20;3.30;;;23.60;39.20;;;;;;5060045;28;20355;-62
2023/05/14 09:36:25;;;;;;;4.32;3.70;;;23.50;39.00;;;;;;5059533;28;20059;-63
2023/05/14 09:38:55;;;;;;;6.07;4.22;;;23.50;38.90;;;;;;5055861;28;20025;-64
2023/05/14 09:41:21;;;;;;;4.18;3.72;;;23.60;38.80;;;;;;5057277;28;20079;-65
2023/05/14 09:43:48;;;;;;;4.88;4.00;;;23.60;38.70;;;;;;5058909;28;20036;-64
2023/05/14 09:46:14;;;;;;;5.25;4.30;;;23.60;38.60;;;;;;5055131;28;20028;-64
2023/05/14 09:48:40;;;;;;;5.03;4.07;;;23.60;38.50;;;;;;5059950;28;20040;-63
2023/05/14 09:51:08;;;;;;;5.43;4.00;;;23.60;38.40;;;;;;5059332;28;20037;-62
2023/05/14 09:53:34;;;;;;;5.63;4.55;;;23.60;38.30;;;;;;5059259;28;20025;-66
2023/05/14 09:56:00;;;;;;;5.00;3.70;;;23.60;38.30;;;;;;5053226;28;20024;-65
2023/05/14 09:58:26;;;;;;;4.40;3.78;;;23.60;38.20;;;;;;5057847;28;20055;-64
2023/05/14 10:00:53;;;;;;;6.53;3.38;;;23.70;38.10;;;;;;5058206;28;20104;-64
2023/05/14 10:03:21;;;;;;;4.00;3.40;;;23.60;37.90;;;;;;5062498;28;20059;-63
2023/05/14 10:05:49;;;;;;;6.68;3.90;;;23.70;37.80;;;;;;5058440;28;20120;-62
2023/05/14 10:08:26;;;;;;;5.70;4.40;;;23.70;37.60;;;;;;5068205;28;20028;-64
2023/05/14 10:10:53;;;;;;;5.60;4.75;;;23.70;37.60;;;;;;5047771;28;20106;-64
2023/05/14 10:13:23;;;;;;;6.82;5.25;;;23.70;37.70;;;;;;5062721;28;20420;-66
2023/05/14 10:16:01;;;;;;;8.35;6.15;;;23.70;38.20;;;;;;5064453;28;20112;-66
2023/05/14 10:18:30;;;;;;;11.35;7.30;;;23.70;39.00;;;;;;5061328;28;20029;-65
2023/05/14 10:21:05;;;;;;;15.27;8.60;;;23.70;39.80;;;;;;5062242;28;20092;-64
2023/05/14 10:23:37;;;;;;;12.68;8.90;;;23.80;41.00;;;;;;5062684;28;20036;-66
2023/05/14 10:26:05;;;;;;;11.18;7.93;;;23.80;42.10;;;;;;5063680;28;20071;-65
2023/05/14 10:28:31;;;;;;;11.90;8.50;;;23.90;42.40;;;;;;5034994;28;20016;-65
2023/05/14 10:30:59;;;;;;;13.90;9.02;;;23.90;42.50;;;;;;5067651;28;20020;-66
2023/05/14 10:33:25;;;;;;;14.20;8.52;;;23.90;42.80;;;;;;5067570;28;20028;-66
2023/05/14 10:36:03;;;;;;;12.13;8.60;;;24.00;43.20;;;;;;5057125;28;20021;-65
2023/05/14 10:38:36;;;;;;;12.55;8.15;;;24.00;43.10;;;;;;5064000;28;20032;-66
2023/05/14 10:41:14;;;;;;;11.55;9.05;;;24.00;42.90;;;;;;5062493;28;20387;-66
2023/05/14 10:43:41;;;;;;;12.60;9.50;;;24.00;43.00;;;;;;5052654;28;20060;-67
2023/05/14 10:46:12;;;;;;;15.40;10.80;;;24.00;43.50;;;;;;5069191;28;20132;-64
2023/05/14 10:48:42;;;;;;;16.15;11.75;;;24.10;44.10;;;;;;5075245;28;20397;-68
2023/05/14 10:51:11;;;;;;;19.70;13.05;;;24.10;44.70;;;;;;5066713;28;20064;-67
2023/05/14 10:53:39;;;;;;;21.15;13.98;;;24.10;45.60;;;;;;5055167;28;20025;-65
2023/05/14 10:56:08;;;;;;;24.05;15.23;;;24.20;46.60;;;;;;5042117;28;20052;-64
2023/05/14 10:58:38;;;;;;;22.75;15.27;;;24.20;47.30;;;;;;5062771;28;20105;-67
2023/05/14 11:01:09;;;;;;;21.88;15.27;;;24.20;47.70;;;;;;5061495;28;20025;-65
2023/05/14 11:03:40;;;;;;;26.13;15.65;;;24.20;47.90;;;;;;5056780;28;20043;-65
2023/05/14 11:06:08;;;;;;;19.80;14.63;;;24.30;48.40;;;;;;5074224;28;20179;-68
2023/05/14 11:08:34;;;;;;;20.17;13.40;;;24.30;48.20;;;;;;5063148;28;20037;-64
2023/05/14 11:11:00;;;;;;;18.40;13.50;;;24.30;47.70;;;;;;5039967;28;20025;-64
2023/05/14 11:13:27;;;;;;;19.08;13.75;;;24.30;47.00;;;;;;5041219;28;20357;-66
2023/05/14 11:16:04;;;;;;;15.85;11.98;;;24.40;46.30;;;;;;5036215;28;20098;-64
2023/05/14 11:18:37;;;;;;;14.82;11.32;;;24.40;45.40;;;;;;5059931;28;20047;-64
2023/05/14 11:21:04;;;;;;;14.30;11.20;;;24.40;44.70;;;;;;5056732;28;20140;-66
2023/05/14 11:23:30;;;;;;;13.30;10.93;;;24.40;44.00;;;;;;5057635;28;20024;-65
2023/05/14 11:25:56;;;;;;;13.30;10.85;;;24.40;43.50;;;;;;5059321;28;20095;-68
2023/05/14 11:28:23;;;;;;;13.30;10.93;;;24.40;42.90;;;;;;5054602;28;20036;-66
2023/05/14 11:30:50;;;;;;;13.52;10.40;;;24.40;42.40;;;;;;5053911;28;20067;-66
2023/05/14 11:33:17;;;;;;;11.80;10.60;;;24.40;42.00;;;;;;5039064;28;20131;-66
2023/05/14 11:35:44;;;;;;;12.85;10.80;;;24.40;41.70;;;;;;5051498;28;20061;-65
2023/05/14 11:38:18;;;;;;;11.98;10.52;;;24.40;41.30;;;;;;5042187;28;20090;-67
2023/05/14 11:40:58;;;;;;;13.63;10.70;;;24.40;41.00;;;;;;5059426;28;20105;-66
2023/05/14 11:43:28;;;;;;;11.40;9.73;;;24.40;40.50;;;;;;5057288;28;20106;-66
2023/05/14 11:45:54;;;;;;;12.27;10.20;;;24.40;40.20;;;;;;5048599;28;20029;-66
2023/05/14 11:48:21;;;;;;;10.90;9.80;;;24.40;39.70;;;;;;5056342;28;20044;-65
2023/05/14 11:50:51;;;;;;;10.65;9.23;;;24.40;39.40;;;;;;5054231;28;20032;-67
2023/05/14 11:53:24;;;;;;;9.98;8.57;;;24.40;39.10;;;;;;5056187;28;20048;-67
2023/05/14 11:55:51;;;;;;;12.57;9.05;;;24.40;38.90;;;;;;5059337;28;20032;-65
2023/05/14 11:58:17;;;;;;;11.13;8.77;;;24.40;38.70;;;;;;5056342;28;20031;-65
2023/05/14 12:00:44;;;;;;;9.13;7.80;;;24.40;38.60;;;;;;5043369;28;20041;-65
2023/05/14 12:03:11;;;;;;;9.23;8.10;;;24.40;38.50;;;;;;5051669;28;20094;-66
2023/05/14 12:05:38;;;;;;;10.73;9.13;;;24.50;38.40;;;;;;5053849;28;20132;-65
2023/05/14 12:08:22;;;;;;;9.82;8.82;;;24.40;38.20;;;;;;5060352;28;20035;-66
2023/05/14 12:10:49;;;;;;;9.85;8.65;;;24.50;38.00;;;;;;5035354;28;20039;-64
2023/05/14 12:13:16;;;;;;;10.13;9.13;;;24.50;37.80;;;;;;5053600;28;20028;-65
2023/05/14 12:15:46;;;;;;;10.65;8.70;;;24.40;37.70;;;;;;5059309;28;20403;-66
2023/05/14 12:18:13;;;;;;;12.13;9.10;;;24.40;37.50;;;;;;5056565;28;20021;-64
2023/05/14 12:20:44;;;;;;;12.30;9.10;;;24.40;37.40;;;;;;5058248;28;20028;-66
2023/05/14 12:23:10;;;;;;;11.57;8.32;;;24.50;37.50;;;;;;5060713;28;20028;-63
2023/05/14 12:25:37;;;;;;;10.70;9.27;;;24.50;37.40;;;;;;5058889;28;20041;-66
2023/05/14 12:28:14;;;;;;;9.30;8.20;;;24.50;37.40;;;;;;5062704;28;20046;-65
2023/05/14 12:30:40;;;;;;;11.77;8.98;;;24.50;37.40;;;;;;5063387;28;20037;-67
2023/05/14 12:33:06;;;;;;;8.80;7.85;;;24.50;37.40;;;;;;5037430;28;20444;-68
2023/05/14 12:35:32;;;;;;;9.35;8.18;;;24.50;37.30;;;;;;5060539;28;20091;-65
2023/05/14 12:37:58;;;;;;;10.48;8.70;;;24.50;37.20;;;;;;5062506;28;20162;-64
2023/05/14 12:40:24;;;;;;;9.57;8.57;;;24.50;37.10;;;;;;5061307;28;20063;-67
2023/05/14 12:42:50;;;;;;;9.45;7.95;;;24.50;37.00;;;;;;5059951;28;21386;-64
2023/05/14 12:45:15;;;;;;;9.13;8.13;;;24.50;37.10;;;;;;5042161;28;20033;-64
2023/05/14 12:47:41;;;;;;;10.10;8.68;;;24.50;36.80;;;;;;5057069;28;21870;-66